sensor_id;sensor_type;location;lat;lon;timestamp;temperature;humidity
2647;DHT22;1333;50.958;6.770;2023-05-07T00:00:21;15.50;99.90
2647;DHT22;1333;50.958;6.770;2023-05-07T00:02:47;15.50;99.90
2647;DHT22;1333;50.958;6.770;2023-05-07T00:05:13;15.50;99.90
2647;DHT22;1333;50.958;6.770;2023-05-07T00:07:39;15.50;99.90
2647;DHT22;1333;50.958;6.770;2023-05-07T00:10:05;15.50;99.90
2647;DHT22;1333;50.958;6.770;2023-05-07T00:12:32;15.50;99.90
2647;DHT22;1333;50.958;6.770;2023-05-07T00:15:00;15.50;99.90
2647;DHT22;1333;50.958;6.770;2023-05-07T00:17:25;15.50;99.90
2647;DHT22;1333;50.958;6.770;2023-05-07T00:19:51;15.40;99.90
2647;DHT22;1333;50.958;6.770;2023-05-07T00:22:17;15.30;99.90
2647;DHT22;1333;50.958;6.770;2023-05-07T00:24:42;15.30;99.90
2647;DHT22;1333;50.958;6.770;2023-05-07T00:27:08;15.20;99.90
2647;DHT22;1333;50.958;6.770;2023-05-07T00:29:34;15.20;99.90
2647;DHT22;1333;50.958;6.770;2023-05-07T00:31:59;15.20;99.90
2647;DHT22;1333;50.958;6.770;2023-05-07T00:34:25;15.30;99.90
2647;DHT22;1333;50.958;6.770;2023-05-07T00:36:50;15.30;99.90
2647;DHT22;1333;50.958;6.770;2023-05-07T00:39:16;15.30;99.90
2647;DHT22;1333;50.958;6.770;2023-05-07T00:41:41;15.30;99.90
2647;DHT22;1333;50.958;6.770;2023-05-07T00:44:07;15.30;99.90
2647;DHT22;1333;50.958;6.770;2023-05-07T00:46:32;15.30;99.90
2647;DHT22;1333;50.958;6.770;2023-05-07T00:48:59;15.30;99.90
2647;DHT22;1333;50.958;6.770;2023-05-07T00:51:26;15.30;99.90
2647;DHT22;1333;50.958;6.770;2023-05-07T00:53:53;15.30;99.90
2647;DHT22;1333;50.958;6.770;2023-05-07T00:56:22;15.20;99.90
2647;DHT22;1333;50.958;6.770;2023-05-07T00:58:49;15.20;99.90
2647;DHT22;1333;50.958;6.770;2023-05-07T01:01:14;15.20;99.90
2647;DHT22;1333;50.958;6.770;2023-05-07T01:03:43;15.20;99.90
2647;DHT22;1333;50.958;6.770;2023-05-07T01:06:10;15.20;99.90
2647;DHT22;1333;50.958;6.770;2023-05-07T01:08:41;15.20;99.90
2647;DHT22;1333;50.958;6.770;2023-05-07T01:11:07;15.20;99.90
2647;DHT22;1333;50.958;6.770;2023-05-07T01:13:34;15.20;99.90
2647;DHT22;1333;50.958;6.770;2023-05-07T01:16:00;15.20;99.90
2647;DHT22;1333;50.958;6.770;2023-05-07T01:18:26;15.10;99.90
2647;DHT22;1333;50.958;6.770;2023-05-07T01:20:52;15.10;99.90
2647;DHT22;1333;50.958;6.770;2023-05-07T01:23:18;15.00;99.90
2647;DHT22;1333;50.958;6.770;2023-05-07T01:25:51;15.00;99.90
2647;DHT22;1333;50.958;6.770;2023-05-07T01:28:17;15.00;99.90
2647;DHT22;1333;50.958;6.770;2023-05-07T01:30:49;14.90;99.90
2647;DHT22;1333;50.958;6.770;2023-05-07T01:33:20;14.80;99.90
2647;DHT22;1333;50.958;6.770;2023-05-07T01:35:49;14.70;99.90
2647;DHT22;1333;50.958;6.770;2023-05-07T01:38:16;14.70;99.90
2647;DHT22;1333;50.958;6.770;2023-05-07T01:40:42;14.70;99.90
2647;DHT22;1333;50.958;6.770;2023-05-07T01:43:08;14.70;99.90
2647;DHT22;1333;50.958;6.770;2023-05-07T01:45:35;14.70;99.90
2647;DHT22;1333;50.958;6.770;2023-05-07T01:48:02;14.70;99.90
2647;DHT22;1333;50.958;6.770;2023-05-07T01:50:28;14.80;99.90
2647;DHT22;1333;50.958;6.770;2023-05-07T01:52:55;14.80;99.90
2647;DHT22;1333;50.958;6.770;2023-05-07T01:55:21;14.80;99.90
2647;DHT22;1333;50.958;6.770;2023-05-07T01:57:47;14.80;99.90
2647;DHT22;1333;50.958;6.770;2023-05-07T02:00:12;14.80;99.90
2647;DHT22;1333;50.958;6.770;2023-05-07T02:02:38;14.80;99.90
2647;DHT22;1333;50.958;6.770;2023-05-07T02:05:04;14.80;99.90
2647;DHT22;1333;50.958;6.770;2023-05-07T02:07:30;14.80;99.90
2647;DHT22;1333;50.958;6.770;2023-05-07T02:09:55;14.80;99.90
2647;DHT22;1333;50.958;6.770;2023-05-07T02:12:22;14.70;99.90
2647;DHT22;1333;50.958;6.770;2023-05-07T02:14:48;14.70;99.90
2647;DHT22;1333;50.958;6.770;2023-05-07T02:17:13;14.60;99.90
2647;DHT22;1333;50.958;6.770;2023-05-07T02:19:39;14.60;99.90
2647;DHT22;1333;50.958;6.770;2023-05-07T02:22:04;14.50;99.90
2647;DHT22;1333;50.958;6.770;2023-05-07T02:24:30;14.40;99.90
2647;DHT22;1333;50.958;6.770;2023-05-07T02:26:56;14.40;99.90
2647;DHT22;1333;50.958;6.770;2023-05-07T02:29:21;14.30;99.90
2647;DHT22;1333;50.958;6.770;2023-05-07T02:31:47;14.30;99.90
2647;DHT22;1333;50.958;6.770;2023-05-07T02:34:16;14.30;99.90
2647;DHT22;1333;50.958;6.770;2023-05-07T02:36:42;14.30;99.90
2647;DHT22;1333;50.958;6.770;2023-05-07T02:39:07;14.30;99.90
2647;DHT22;1333;50.958;6.770;2023-05-07T02:41:33;14.20;99.90
2647;DHT22;1333;50.958;6.770;2023-05-07T02:43:58;14.30;99.90
2647;DHT22;1333;50.958;6.770;2023-05-07T02:46:24;14.30;99.90
2647;DHT22;1333;50.958;6.770;2023-05-07T02:48:49;14.30;99.90
2647;DHT22;1333;50.958;6.770;2023-05-07T02:51:20;14.30;99.90
2647;DHT22;1333;50.958;6.770;2023-05-07T02:53:45;14.40;99.90
2647;DHT22;1333;50.958;6.770;2023-05-07T02:56:11;14.40;99.90
2647;DHT22;1333;50.958;6.770;2023-05-07T02:58:37;14.40;99.90
2647;DHT22;1333;50.958;6.770;2023-05-07T03:01:05;14.40;99.90
2647;DHT22;1333;50.958;6.770;2023-05-07T03:03:30;14.40;99.90
2647;DHT22;1333;50.958;6.770;2023-05-07T03:05:56;14.40;99.90
2647;DHT22;1333;50.958;6.770;2023-05-07T03:08:22;14.30;99.90
2647;DHT22;1333;50.958;6.770;2023-05-07T03:10:47;14.30;99.90
2647;DHT22;1333;50.958;6.770;2023-05-07T03:13:13;14.20;99.90
2647;DHT22;1333;50.958;6.770;2023-05-07T03:15:38;14.20;99.90
2647;DHT22;1333;50.958;6.770;2023-05-07T03:18:04;14.20;99.90
2647;DHT22;1333;50.958;6.770;2023-05-07T03:20:30;14.20;99.90
2647;DHT22;1333;50.958;6.770;2023-05-07T03:22:55;14.10;99.90
2647;DHT22;1333;50.958;6.770;2023-05-07T03:25:21;14.10;99.90
2647;DHT22;1333;50.958;6.770;2023-05-07T03:27:46;14.00;99.90
2647;DHT22;1333;50.958;6.770;2023-05-07T03:30:12;14.00;99.90
2647;DHT22;1333;50.958;6.770;2023-05-07T03:32:38;13.90;99.90
2647;DHT22;1333;50.958;6.770;2023-05-07T03:35:03;13.80;99.90
2647;DHT22;1333;50.958;6.770;2023-05-07T03:37:29;13.80;99.90
2647;DHT22;1333;50.958;6.770;2023-05-07T03:39:55;13.80;99.90
2647;DHT22;1333;50.958;6.770;2023-05-07T03:42:20;13.80;99.90
2647;DHT22;1333;50.958;6.770;2023-05-07T03:44:46;13.80;99.90
2647;DHT22;1333;50.958;6.770;2023-05-07T03:47:12;13.70;99.90
2647;DHT22;1333;50.958;6.770;2023-05-07T03:49:38;13.80;99.90
2647;DHT22;1333;50.958;6.770;2023-05-07T03:52:04;13.80;99.90
2647;DHT22;1333;50.958;6.770;2023-05-07T03:54:30;13.80;99.90
2647;DHT22;1333;50.958;6.770;2023-05-07T03:56:56;13.80;99.90
2647;DHT22;1333;50.958;6.770;2023-05-07T03:59:22;13.80;99.90
2647;DHT22;1333;50.958;6.770;2023-05-07T04:01:47;13.80;99.90
2647;DHT22;1333;50.958;6.770;2023-05-07T04:04:14;13.90;99.90
2647;DHT22;1333;50.958;6.770;2023-05-07T04:06:40;13.90;99.90
2647;DHT22;1333;50.958;6.770;2023-05-07T04:09:05;14.00;99.90
2647;DHT22;1333;50.958;6.770;2023-05-07T04:11:31;14.00;99.90
2647;DHT22;1333;50.958;6.770;2023-05-07T04:13:57;14.10;99.90
2647;DHT22;1333;50.958;6.770;2023-05-07T04:16:24;14.20;99.90
2647;DHT22;1333;50.958;6.770;2023-05-07T04:18:49;14.20;99.90
2647;DHT22;1333;50.958;6.770;2023-05-07T04:21:19;14.30;99.90
2647;DHT22;1333;50.958;6.770;2023-05-07T04:23:49;14.40;99.90
2647;DHT22;1333;50.958;6.770;2023-05-07T04:26:15;14.50;99.90
2647;DHT22;1333;50.958;6.770;2023-05-07T04:28:41;14.50;99.90
2647;DHT22;1333;50.958;6.770;2023-05-07T04:31:07;14.60;99.90
2647;DHT22;1333;50.958;6.770;2023-05-07T04:33:33;14.70;99.90
2647;DHT22;1333;50.958;6.770;2023-05-07T04:36:02;14.70;99.90
2647;DHT22;1333;50.958;6.770;2023-05-07T04:38:30;14.80;99.90
2647;DHT22;1333;50.958;6.770;2023-05-07T04:40:56;14.80;99.90
2647;DHT22;1333;50.958;6.770;2023-05-07T04:43:22;14.90;99.90
2647;DHT22;1333;50.958;6.770;2023-05-07T04:45:50;14.80;99.90
2647;DHT22;1333;50.958;6.770;2023-05-07T04:48:16;14.80;99.90
2647;DHT22;1333;50.958;6.770;2023-05-07T04:50:46;14.80;99.90
2647;DHT22;1333;50.958;6.770;2023-05-07T04:53:12;14.90;99.90
2647;DHT22;1333;50.958;6.770;2023-05-07T04:55:37;14.90;99.90
2647;DHT22;1333;50.958;6.770;2023-05-07T04:58:03;14.90;99.90
2647;DHT22;1333;50.958;6.770;2023-05-07T05:00:30;14.90;99.90
2647;DHT22;1333;50.958;6.770;2023-05-07T05:02:55;15.00;99.90
2647;DHT22;1333;50.958;6.770;2023-05-07T05:05:21;15.00;99.90
2647;DHT22;1333;50.958;6.770;2023-05-07T05:07:46;15.10;99.90
2647;DHT22;1333;50.958;6.770;2023-05-07T05:10:12;15.10;99.90
2647;DHT22;1333;50.958;6.770;2023-05-07T05:12:37;15.20;99.90
2647;DHT22;1333;50.958;6.770;2023-05-07T05:15:04;15.40;99.90
2647;DHT22;1333;50.958;6.770;2023-05-07T05:17:29;15.50;99.90
2647;DHT22;1333;50.958;6.770;2023-05-07T05:19:55;15.50;99.90
2647;DHT22;1333;50.958;6.770;2023-05-07T05:22:21;15.60;99.90
2647;DHT22;1333;50.958;6.770;2023-05-07T05:24:46;15.60;99.90
2647;DHT22;1333;50.958;6.770;2023-05-07T05:27:12;15.50;99.90
2647;DHT22;1333;50.958;6.770;2023-05-07T05:29:37;15.50;99.90
2647;DHT22;1333;50.958;6.770;2023-05-07T05:32:03;15.60;99.90
2647;DHT22;1333;50.958;6.770;2023-05-07T05:34:29;15.70;99.90
2647;DHT22;1333;50.958;6.770;2023-05-07T05:36:54;15.70;99.90
2647;DHT22;1333;50.958;6.770;2023-05-07T05:39:20;15.70;99.90
2647;DHT22;1333;50.958;6.770;2023-05-07T05:41:46;15.80;99.90
2647;DHT22;1333;50.958;6.770;2023-05-07T05:44:12;15.90;99.90
2647;DHT22;1333;50.958;6.770;2023-05-07T05:46:38;16.00;99.90
2647;DHT22;1333;50.958;6.770;2023-05-07T05:49:03;16.10;99.90
2647;DHT22;1333;50.958;6.770;2023-05-07T05:51:28;16.20;99.90
2647;DHT22;1333;50.958;6.770;2023-05-07T05:53:54;16.30;99.90
2647;DHT22;1333;50.958;6.770;2023-05-07T05:56:20;16.40;99.90
2647;DHT22;1333;50.958;6.770;2023-05-07T05:58:46;16.60;99.90
2647;DHT22;1333;50.958;6.770;2023-05-07T06:01:12;16.70;99.90
2647;DHT22;1333;50.958;6.770;2023-05-07T06:03:37;16.90;99.90
2647;DHT22;1333;50.958;6.770;2023-05-07T06:06:03;17.10;99.90
2647;DHT22;1333;50.958;6.770;2023-05-07T06:08:31;17.10;99.90
2647;DHT22;1333;50.958;6.770;2023-05-07T06:10:57;17.30;99.90
2647;DHT22;1333;50.958;6.770;2023-05-07T06:13:23;17.50;99.90
2647;DHT22;1333;50.958;6.770;2023-05-07T06:15:49;17.70;99.90
2647;DHT22;1333;50.958;6.770;2023-05-07T06:18:15;17.90;99.90
2647;DHT22;1333;50.958;6.770;2023-05-07T06:20:40;18.10;99.90
2647;DHT22;1333;50.958;6.770;2023-05-07T06:23:06;18.40;99.90
2647;DHT22;1333;50.958;6.770;2023-05-07T06:25:31;18.70;99.90
2647;DHT22;1333;50.958;6.770;2023-05-07T06:27:57;18.90;99.90
2647;DHT22;1333;50.958;6.770;2023-05-07T06:30:22;19.20;99.90
2647;DHT22;1333;50.958;6.770;2023-05-07T06:32:48;19.30;99.90
2647;DHT22;1333;50.958;6.770;2023-05-07T06:35:13;19.50;99.90
2647;DHT22;1333;50.958;6.770;2023-05-07T06:37:39;19.50;99.90
2647;DHT22;1333;50.958;6.770;2023-05-07T06:40:06;19.70;99.90
2647;DHT22;1333;50.958;6.770;2023-05-07T06:42:32;20.20;99.90
2647;DHT22;1333;50.958;6.770;2023-05-07T06:44:57;20.70;99.90
2647;DHT22;1333;50.958;6.770;2023-05-07T06:47:23;20.80;99.90
2647;DHT22;1333;50.958;6.770;2023-05-07T06:49:48;21.40;99.90
2647;DHT22;1333;50.958;6.770;2023-05-07T06:52:14;22.10;99.90
2647;DHT22;1333;50.958;6.770;2023-05-07T06:54:40;22.70;99.90
2647;DHT22;1333;50.958;6.770;2023-05-07T06:57:05;23.10;99.90
2647;DHT22;1333;50.958;6.770;2023-05-07T06:59:31;23.70;99.90
2647;DHT22;1333;50.958;6.770;2023-05-07T07:01:56;24.10;99.90
2647;DHT22;1333;50.958;6.770;2023-05-07T07:04:22;24.80;99.90
2647;DHT22;1333;50.958;6.770;2023-05-07T07:06:49;25.30;99.90
2647;DHT22;1333;50.958;6.770;2023-05-07T07:09:14;25.70;99.90
2647;DHT22;1333;50.958;6.770;2023-05-07T07:11:40;26.20;99.90
2647;DHT22;1333;50.958;6.770;2023-05-07T07:14:05;26.50;99.00
2647;DHT22;1333;50.958;6.770;2023-05-07T07:16:31;26.80;94.40
2647;DHT22;1333;50.958;6.770;2023-05-07T07:18:56;27.20;92.60
2647;DHT22;1333;50.958;6.770;2023-05-07T07:21:22;27.20;88.00
2647;DHT22;1333;50.958;6.770;2023-05-07T07:23:47;27.50;80.30
2647;DHT22;1333;50.958;6.770;2023-05-07T07:26:13;27.80;80.50
2647;DHT22;1333;50.958;6.770;2023-05-07T07:28:43;28.40;78.20
2647;DHT22;1333;50.958;6.770;2023-05-07T07:31:09;29.40;76.70
2647;DHT22;1333;50.958;6.770;2023-05-07T07:33:34;30.20;64.80
2647;DHT22;1333;50.958;6.770;2023-05-07T07:36:00;30.70;61.90
2647;DHT22;1333;50.958;6.770;2023-05-07T07:38:25;30.60;59.20
2647;DHT22;1333;50.958;6.770;2023-05-07T07:40:51;30.40;57.40
2647;DHT22;1333;50.958;6.770;2023-05-07T07:43:16;30.50;57.40
2647;DHT22;1333;50.958;6.770;2023-05-07T07:45:42;30.70;54.50
2647;DHT22;1333;50.958;6.770;2023-05-07T07:48:07;30.00;55.30
2647;DHT22;1333;50.958;6.770;2023-05-07T07:50:33;29.90;56.60
2647;DHT22;1333;50.958;6.770;2023-05-07T07:52:58;30.40;57.10
2647;DHT22;1333;50.958;6.770;2023-05-07T07:55:24;31.20;57.90
2647;DHT22;1333;50.958;6.770;2023-05-07T07:57:50;31.00;55.00
2647;DHT22;1333;50.958;6.770;2023-05-07T08:00:15;31.10;54.60
2647;DHT22;1333;50.958;6.770;2023-05-07T08:02:41;30.90;54.60
2647;DHT22;1333;50.958;6.770;2023-05-07T08:05:07;31.00;54.90
2647;DHT22;1333;50.958;6.770;2023-05-07T08:07:33;30.70;54.40
2647;DHT22;1333;50.958;6.770;2023-05-07T08:09:58;30.60;55.20
2647;DHT22;1333;50.958;6.770;2023-05-07T08:12:24;30.30;55.00
2647;DHT22;1333;50.958;6.770;2023-05-07T08:14:49;29.80;54.50
2647;DHT22;1333;50.958;6.770;2023-05-07T08:17:15;29.80;56.30
2647;DHT22;1333;50.958;6.770;2023-05-07T08:19:42;29.80;56.50
2647;DHT22;1333;50.958;6.770;2023-05-07T08:22:08;29.70;56.40
2647;DHT22;1333;50.958;6.770;2023-05-07T08:24:34;29.90;57.10
2647;DHT22;1333;50.958;6.770;2023-05-07T08:26:59;30.20;56.80
2647;DHT22;1333;50.958;6.770;2023-05-07T08:29:25;30.70;55.00
2647;DHT22;1333;50.958;6.770;2023-05-07T08:31:51;31.60;55.50
2647;DHT22;1333;50.958;6.770;2023-05-07T08:34:16;32.30;54.50
2647;DHT22;1333;50.958;6.770;2023-05-07T08:36:42;32.60;51.70
2647;DHT22;1333;50.958;6.770;2023-05-07T08:39:07;32.50;50.60
2647;DHT22;1333;50.958;6.770;2023-05-07T08:41:34;33.20;52.00
2647;DHT22;1333;50.958;6.770;2023-05-07T08:44:02;34.10;50.20
2647;DHT22;1333;50.958;6.770;2023-05-07T08:46:31;34.20;47.00
2647;DHT22;1333;50.958;6.770;2023-05-07T08:48:57;34.50;46.90
2647;DHT22;1333;50.958;6.770;2023-05-07T08:51:23;35.20;46.90
2647;DHT22;1333;50.958;6.770;2023-05-07T08:53:49;36.00;46.20
2647;DHT22;1333;50.958;6.770;2023-05-07T08:56:15;36.20;43.00
2647;DHT22;1333;50.958;6.770;2023-05-07T08:58:42;36.10;43.50
2647;DHT22;1333;50.958;6.770;2023-05-07T09:01:10;36.30;43.40
2647;DHT22;1333;50.958;6.770;2023-05-07T09:03:38;35.70;42.10
2647;DHT22;1333;50.958;6.770;2023-05-07T09:06:04;35.10;41.40
2647;DHT22;1333;50.958;6.770;2023-05-07T09:08:32;34.60;42.40
2647;DHT22;1333;50.958;6.770;2023-05-07T09:10:57;35.30;44.50
2647;DHT22;1333;50.958;6.770;2023-05-07T09:13:23;36.10;42.50
2647;DHT22;1333;50.958;6.770;2023-05-07T09:15:48;36.50;41.10
2647;DHT22;1333;50.958;6.770;2023-05-07T09:18:14;36.80;40.60
2647;DHT22;1333;50.958;6.770;2023-05-07T09:20:40;38.10;41.60
2647;DHT22;1333;50.958;6.770;2023-05-07T09:23:09;38.90;39.20
2647;DHT22;1333;50.958;6.770;2023-05-07T09:25:36;38.80;37.50
2647;DHT22;1333;50.958;6.770;2023-05-07T09:28:02;39.50;38.20
2647;DHT22;1333;50.958;6.770;2023-05-07T09:30:29;40.80;38.50
2647;DHT22;1333;50.958;6.770;2023-05-07T09:32:57;41.60;34.50
2647;DHT22;1333;50.958;6.770;2023-05-07T09:35:24;42.20;33.60
2647;DHT22;1333;50.958;6.770;2023-05-07T09:37:53;43.10;32.60
2647;DHT22;1333;50.958;6.770;2023-05-07T09:40:22;44.80;33.20
2647;DHT22;1333;50.958;6.770;2023-05-07T09:42:49;45.20;28.90
2647;DHT22;1333;50.958;6.770;2023-05-07T09:45:28;45.50;29.00
2647;DHT22;1333;50.958;6.770;2023-05-07T09:47:55;46.80;30.20
2647;DHT22;1333;50.958;6.770;2023-05-07T09:50:26;48.00;29.20
2647;DHT22;1333;50.958;6.770;2023-05-07T09:52:54;49.00;28.50
2647;DHT22;1333;50.958;6.770;2023-05-07T09:55:21;49.70;27.20
2647;DHT22;1333;50.958;6.770;2023-05-07T09:57:50;50.60;27.30
2647;DHT22;1333;50.958;6.770;2023-05-07T10:00:20;50.90;25.10
2647;DHT22;1333;50.958;6.770;2023-05-07T10:02:49;50.70;24.70
2647;DHT22;1333;50.958;6.770;2023-05-07T10:05:16;50.30;24.70
2647;DHT22;1333;50.958;6.770;2023-05-07T10:07:42;51.20;25.70
2647;DHT22;1333;50.958;6.770;2023-05-07T10:10:09;51.80;24.50
2647;DHT22;1333;50.958;6.770;2023-05-07T10:12:35;51.20;23.70
2647;DHT22;1333;50.958;6.770;2023-05-07T10:15:07;50.30;23.50
2647;DHT22;1333;50.958;6.770;2023-05-07T10:17:38;49.40;24.30
2647;DHT22;1333;50.958;6.770;2023-05-07T10:20:05;48.60;24.90
2647;DHT22;1333;50.958;6.770;2023-05-07T10:22:45;47.30;24.60
2647;DHT22;1333;50.958;6.770;2023-05-07T10:25:25;47.30;26.40
2647;DHT22;1333;50.958;6.770;2023-05-07T10:27:55;47.60;26.20
2647;DHT22;1333;50.958;6.770;2023-05-07T10:30:40;47.20;24.60
2647;DHT22;1333;50.958;6.770;2023-05-07T10:33:10;46.90;24.60
2647;DHT22;1333;50.958;6.770;2023-05-07T10:35:42;46.90;24.80
2647;DHT22;1333;50.958;6.770;2023-05-07T10:38:08;47.50;24.90
2647;DHT22;1333;50.958;6.770;2023-05-07T10:40:34;47.10;25.50
2647;DHT22;1333;50.958;6.770;2023-05-07T10:43:02;45.90;24.60
2647;DHT22;1333;50.958;6.770;2023-05-07T10:45:30;43.50;25.60
2647;DHT22;1333;50.958;6.770;2023-05-07T10:48:16;42.30;26.30
2647;DHT22;1333;50.958;6.770;2023-05-07T10:50:43;40.80;27.10
2647;DHT22;1333;50.958;6.770;2023-05-07T10:56:23;37.50;28.80
2647;DHT22;1333;50.958;6.770;2023-05-07T10:58:49;36.20;30.00
2647;DHT22;1333;50.958;6.770;2023-05-07T11:01:15;35.40;31.90
2647;DHT22;1333;50.958;6.770;2023-05-07T11:04:14;35.00;33.30
2647;DHT22;1333;50.958;6.770;2023-05-07T11:06:40;34.50;33.70
2647;DHT22;1333;50.958;6.770;2023-05-07T11:09:06;34.00;34.20
2647;DHT22;1333;50.958;6.770;2023-05-07T11:11:47;33.30;35.00
2647;DHT22;1333;50.958;6.770;2023-05-07T11:14:14;32.80;36.00
2647;DHT22;1333;50.958;6.770;2023-05-07T11:16:41;32.30;37.00
2647;DHT22;1333;50.958;6.770;2023-05-07T11:19:08;31.90;37.90
2647;DHT22;1333;50.958;6.770;2023-05-07T11:21:37;31.10;37.90
2647;DHT22;1333;50.958;6.770;2023-05-07T11:24:04;30.50;38.00
2647;DHT22;1333;50.958;6.770;2023-05-07T11:29:17;30.00;39.80
2647;DHT22;1333;50.958;6.770;2023-05-07T11:31:43;29.90;40.60
2647;DHT22;1333;50.958;6.770;2023-05-07T11:34:09;29.90;41.40
2647;DHT22;1333;50.958;6.770;2023-05-07T11:36:36;29.90;42.10
2647;DHT22;1333;50.958;6.770;2023-05-07T11:39:06;29.80;42.00
2647;DHT22;1333;50.958;6.770;2023-05-07T11:41:47;29.70;41.70
2647;DHT22;1333;50.958;6.770;2023-05-07T11:44:13;29.10;40.70
2647;DHT22;1333;50.958;6.770;2023-05-07T11:46:43;28.60;41.00
2647;DHT22;1333;50.958;6.770;2023-05-07T11:49:09;28.40;41.90
2647;DHT22;1333;50.958;6.770;2023-05-07T11:51:34;28.20;42.70
2647;DHT22;1333;50.958;6.770;2023-05-07T11:54:00;28.10;42.50
2647;DHT22;1333;50.958;6.770;2023-05-07T11:56:28;28.10;42.90
2647;DHT22;1333;50.958;6.770;2023-05-07T11:58:54;28.10;43.00
2647;DHT22;1333;50.958;6.770;2023-05-07T12:01:19;28.50;43.70
2647;DHT22;1333;50.958;6.770;2023-05-07T12:03:45;28.90;43.30
2647;DHT22;1333;50.958;6.770;2023-05-07T12:06:12;29.20;42.30
2647;DHT22;1333;50.958;6.770;2023-05-07T12:08:39;29.30;42.20
2647;DHT22;1333;50.958;6.770;2023-05-07T12:11:08;29.20;41.50
2647;DHT22;1333;50.958;6.770;2023-05-07T12:13:35;29.10;41.40
2647;DHT22;1333;50.958;6.770;2023-05-07T12:16:01;29.00;41.10
2647;DHT22;1333;50.958;6.770;2023-05-07T12:18:28;28.90;41.30
2647;DHT22;1333;50.958;6.770;2023-05-07T12:20:55;28.60;41.30
2647;DHT22;1333;50.958;6.770;2023-05-07T12:23:21;28.70;41.50
2647;DHT22;1333;50.958;6.770;2023-05-07T12:25:47;28.60;41.30
2647;DHT22;1333;50.958;6.770;2023-05-07T12:28:14;28.50;41.70
2647;DHT22;1333;50.958;6.770;2023-05-07T12:30:47;28.60;42.30
2647;DHT22;1333;50.958;6.770;2023-05-07T12:33:33;28.60;42.50
2647;DHT22;1333;50.958;6.770;2023-05-07T12:36:03;28.50;42.30
2647;DHT22;1333;50.958;6.770;2023-05-07T12:38:39;28.10;42.50
2647;DHT22;1333;50.958;6.770;2023-05-07T12:41:07;28.00;43.10
2647;DHT22;1333;50.958;6.770;2023-05-07T12:43:33;27.70;43.00
2647;DHT22;1333;50.958;6.770;2023-05-07T12:46:04;27.20;43.30
2647;DHT22;1333;50.958;6.770;2023-05-07T12:48:30;27.00;43.90
2647;DHT22;1333;50.958;6.770;2023-05-07T12:51:00;26.70;44.70
2647;DHT22;1333;50.958;6.770;2023-05-07T12:53:26;26.40;45.70
2647;DHT22;1333;50.958;6.770;2023-05-07T12:55:57;26.10;45.90
2647;DHT22;1333;50.958;6.770;2023-05-07T12:58:32;25.70;46.80
2647;DHT22;1333;50.958;6.770;2023-05-07T13:00:59;25.60;47.50
2647;DHT22;1333;50.958;6.770;2023-05-07T13:03:31;25.50;48.10
2647;DHT22;1333;50.958;6.770;2023-05-07T13:06:00;25.40;48.50
2647;DHT22;1333;50.958;6.770;2023-05-07T13:08:31;25.20;49.20
2647;DHT22;1333;50.958;6.770;2023-05-07T13:10:59;25.20;50.00
2647;DHT22;1333;50.958;6.770;2023-05-07T13:13:25;25.10;50.80
2647;DHT22;1333;50.958;6.770;2023-05-07T13:15:51;25.00;51.40
2647;DHT22;1333;50.958;6.770;2023-05-07T13:18:17;25.00;51.50
2647;DHT22;1333;50.958;6.770;2023-05-07T13:20:43;25.00;51.80
2647;DHT22;1333;50.958;6.770;2023-05-07T13:23:08;25.00;51.50
2647;DHT22;1333;50.958;6.770;2023-05-07T13:25:34;24.90;51.70
2647;DHT22;1333;50.958;6.770;2023-05-07T13:27:59;24.80;53.20
2647;DHT22;1333;50.958;6.770;2023-05-07T13:30:25;24.70;54.30
2647;DHT22;1333;50.958;6.770;2023-05-07T13:32:53;24.60;56.10
2647;DHT22;1333;50.958;6.770;2023-05-07T13:35:20;24.60;57.00
2647;DHT22;1333;50.958;6.770;2023-05-07T13:37:46;24.60;59.50
2647;DHT22;1333;50.958;6.770;2023-05-07T13:40:13;24.40;64.00
2647;DHT22;1333;50.958;6.770;2023-05-07T13:42:39;24.20;68.90
2647;DHT22;1333;50.958;6.770;2023-05-07T13:45:04;24.00;80.80
2647;DHT22;1333;50.958;6.770;2023-05-07T13:47:30;23.80;93.40
2647;DHT22;1333;50.958;6.770;2023-05-07T13:49:56;23.40;99.90
2647;DHT22;1333;50.958;6.770;2023-05-07T13:52:22;23.50;99.90
2647;DHT22;1333;50.958;6.770;2023-05-07T13:54:47;23.50;99.90
2647;DHT22;1333;50.958;6.770;2023-05-07T13:57:13;23.70;99.90
2647;DHT22;1333;50.958;6.770;2023-05-07T13:59:38;23.90;99.90
2647;DHT22;1333;50.958;6.770;2023-05-07T14:02:04;24.00;99.90
2647;DHT22;1333;50.958;6.770;2023-05-07T14:04:30;24.20;99.90
2647;DHT22;1333;50.958;6.770;2023-05-07T14:06:56;24.50;99.90
2647;DHT22;1333;50.958;6.770;2023-05-07T14:09:21;24.80;99.90
2647;DHT22;1333;50.958;6.770;2023-05-07T14:11:47;25.10;99.90
2647;DHT22;1333;50.958;6.770;2023-05-07T14:14:19;25.40;99.90
2647;DHT22;1333;50.958;6.770;2023-05-07T14:16:44;25.70;99.90
2647;DHT22;1333;50.958;6.770;2023-05-07T14:19:11;25.80;99.90
2647;DHT22;1333;50.958;6.770;2023-05-07T14:21:36;26.00;99.90
2647;DHT22;1333;50.958;6.770;2023-05-07T14:24:02;26.10;99.90
2647;DHT22;1333;50.958;6.770;2023-05-07T14:26:28;26.10;99.90
2647;DHT22;1333;50.958;6.770;2023-05-07T14:28:54;26.10;99.90
2647;DHT22;1333;50.958;6.770;2023-05-07T14:31:22;26.00;99.90
2647;DHT22;1333;50.958;6.770;2023-05-07T14:33:48;25.90;99.90
2647;DHT22;1333;50.958;6.770;2023-05-07T14:36:15;25.90;99.90
2647;DHT22;1333;50.958;6.770;2023-05-07T14:38:40;25.70;99.90
2647;DHT22;1333;50.958;6.770;2023-05-07T14:41:06;25.50;99.90
2647;DHT22;1333;50.958;6.770;2023-05-07T14:43:31;25.30;99.90
2647;DHT22;1333;50.958;6.770;2023-05-07T14:45:57;25.20;99.90
2647;DHT22;1333;50.958;6.770;2023-05-07T14:48:22;25.10;99.90
2647;DHT22;1333;50.958;6.770;2023-05-07T14:50:48;25.00;99.90
2647;DHT22;1333;50.958;6.770;2023-05-07T14:53:14;24.90;99.90
2647;DHT22;1333;50.958;6.770;2023-05-07T14:55:40;24.80;99.90
2647;DHT22;1333;50.958;6.770;2023-05-07T14:58:06;24.70;99.90
2647;DHT22;1333;50.958;6.770;2023-05-07T15:00:31;24.60;99.90
2647;DHT22;1333;50.958;6.770;2023-05-07T15:03:12;24.50;99.90
2647;DHT22;1333;50.958;6.770;2023-05-07T15:05:38;24.40;99.90
2647;DHT22;1333;50.958;6.770;2023-05-07T15:08:04;24.50;99.90
2647;DHT22;1333;50.958;6.770;2023-05-07T15:10:30;24.50;99.90
2647;DHT22;1333;50.958;6.770;2023-05-07T15:12:55;24.60;99.90
2647;DHT22;1333;50.958;6.770;2023-05-07T15:15:21;24.70;99.90
2647;DHT22;1333;50.958;6.770;2023-05-07T15:17:46;24.80;99.90
2647;DHT22;1333;50.958;6.770;2023-05-07T15:20:12;24.90;99.90
2647;DHT22;1333;50.958;6.770;2023-05-07T15:22:38;25.10;99.90
2647;DHT22;1333;50.958;6.770;2023-05-07T15:25:04;25.20;99.90
2647;DHT22;1333;50.958;6.770;2023-05-07T15:27:30;25.30;99.90
2647;DHT22;1333;50.958;6.770;2023-05-07T15:29:56;25.40;99.90
2647;DHT22;1333;50.958;6.770;2023-05-07T15:32:22;25.60;99.90
2647;DHT22;1333;50.958;6.770;2023-05-07T15:34:47;25.70;99.90
2647;DHT22;1333;50.958;6.770;2023-05-07T15:37:13;25.90;99.90
2647;DHT22;1333;50.958;6.770;2023-05-07T15:39:38;26.10;99.90
2647;DHT22;1333;50.958;6.770;2023-05-07T15:42:04;26.20;99.90
2647;DHT22;1333;50.958;6.770;2023-05-07T15:44:30;26.30;99.90
2647;DHT22;1333;50.958;6.770;2023-05-07T15:46:58;26.40;99.90
2647;DHT22;1333;50.958;6.770;2023-05-07T15:49:24;26.40;99.90
2647;DHT22;1333;50.958;6.770;2023-05-07T15:51:50;26.40;99.90
2647;DHT22;1333;50.958;6.770;2023-05-07T15:54:16;26.40;99.90
2647;DHT22;1333;50.958;6.770;2023-05-07T15:56:45;26.20;99.90
2647;DHT22;1333;50.958;6.770;2023-05-07T15:59:11;26.10;99.90
2647;DHT22;1333;50.958;6.770;2023-05-07T16:01:37;26.00;99.90
2647;DHT22;1333;50.958;6.770;2023-05-07T16:04:03;25.90;99.90